sensor_id;sensor_type;location;lat;lon;timestamp;P1;durP1;ratioP1;P2;durP2;ratioP2
7169;SDS011;3626;42.656;23.312;2023-04-06T00:00:05;10.80;;;6.30;;
7169;SDS011;3626;42.656;23.312;2023-04-06T00:00:14;11.23;;;6.50;;
7169;SDS011;3626;42.656;23.312;2023-04-06T00:00:21;11.53;;;6.50;;
7169;SDS011;3626;42.656;23.312;2023-04-06T00:00:27;11.77;;;6.40;;
7169;SDS011;3626;42.656;23.312;2023-04-06T00:00:33;11.85;;;6.57;;
7169;SDS011;3626;42.656;23.312;2023-04-06T00:00:40;12.30;;;6.77;;
7169;SDS011;3626;42.656;23.312;2023-04-06T00:00:47;12.30;;;6.80;;
7169;SDS011;3626;42.656;23.312;2023-04-06T00:00:56;12.48;;;6.94;;
7169;SDS011;3626;42.656;23.312;2023-04-06T00:01:02;12.13;;;6.97;;
7169;SDS011;3626;42.656;23.312;2023-04-06T00:01:08;11.57;;;6.88;;
7169;SDS011;3626;42.656;23.312;2023-04-06T00:01:14;11.63;;;6.90;;
7169;SDS011;3626;42.656;23.312;2023-04-06T00:01:20;11.50;;;7.00;;
7169;SDS011;3626;42.656;23.312;2023-04-06T00:01:26;11.40;;;7.00;;
7169;SDS011;3626;42.656;23.312;2023-04-06T00:01:32;11.20;;;6.90;;
7169;SDS011;3626;42.656;23.312;2023-04-06T00:01:39;10.50;;;6.53;;
7169;SDS011;3626;42.656;23.312;2023-04-06T00:01:45;10.37;;;6.40;;
7169;SDS011;3626;42.656;23.312;2023-04-06T00:01:52;10.40;;;6.30;;
7169;SDS011;3626;42.656;23.312;2023-04-06T00:01:58;10.35;;;6.30;;
7169;SDS011;3626;42.656;23.312;2023-04-06T00:02:04;10.43;;;6.30;;
7169;SDS011;3626;42.656;23.312;2023-04-06T00:02:10;10.60;;;6.30;;
7169;SDS011;3626;42.656;23.312;2023-04-06T00:02:16;11.27;;;6.30;;
7169;SDS011;3626;42.656;23.312;2023-04-06T00:02:24;11.30;;;6.30;;
7169;SDS011;3626;42.656;23.312;2023-04-06T00:02:30;11.27;;;6.40;;
7169;SDS011;3626;42.656;23.312;2023-04-06T00:02:36;11.40;;;6.43;;
7169;SDS011;3626;42.656;23.312;2023-04-06T00:02:42;12.23;;;6.63;;
7169;SDS011;3626;42.656;23.312;2023-04-06T00:02:48;12.07;;;6.63;;
7169;SDS011;3626;42.656;23.312;2023-04-06T00:02:57;11.93;;;6.50;;
7169;SDS011;3626;42.656;23.312;2023-04-06T00:03:03;12.27;;;6.55;;
7169;SDS011;3626;42.656;23.312;2023-04-06T00:03:09;12.20;;;6.60;;
7169;SDS011;3626;42.656;23.312;2023-04-06T00:03:15;11.47;;;6.63;;
7169;SDS011;3626;42.656;23.312;2023-04-06T00:03:21;11.44;;;6.70;;
7169;SDS011;3626;42.656;23.312;2023-04-06T00:03:27;11.53;;;6.80;;
7169;SDS011;3626;42.656;23.312;2023-04-06T00:03:33;11.63;;;6.88;;
7169;SDS011;3626;42.656;23.312;2023-04-06T00:03:40;11.30;;;6.90;;
7169;SDS011;3626;42.656;23.312;2023-04-06T00:03:46;11.30;;;6.87;;
7169;SDS011;3626;42.656;23.312;2023-04-06T00:03:52;11.60;;;6.97;;
7169;SDS011;3626;42.656;23.312;2023-04-06T00:03:58;12.50;;;7.03;;
7169;SDS011;3626;42.656;23.312;2023-04-06T00:04:04;13.00;;;7.00;;
7169;SDS011;3626;42.656;23.312;2023-04-06T00:04:10;12.90;;;6.93;;
7169;SDS011;3626;42.656;23.312;2023-04-06T00:04:16;12.80;;;6.85;;
7169;SDS011;3626;42.656;23.312;2023-04-06T00:04:22;12.80;;;6.80;;
7169;SDS011;3626;42.656;23.312;2023-04-06T00:04:28;12.70;;;6.60;;
7169;SDS011;3626;42.656;23.312;2023-04-06T00:04:34;12.50;;;6.40;;
7169;SDS011;3626;42.656;23.312;2023-04-06T00:04:43;12.16;;;6.26;;
7169;SDS011;3626;42.656;23.312;2023-04-06T00:04:49;11.96;;;6.12;;
7169;SDS011;3626;42.656;23.312;2023-04-06T00:04:55;11.70;;;6.10;;
7169;SDS011;3626;42.656;23.312;2023-04-06T00:05:05;10.34;;;6.02;;
7169;SDS011;3626;42.656;23.312;2023-04-06T00:05:11;10.52;;;6.10;;
7169;SDS011;3626;42.656;23.312;2023-04-06T00:05:17;10.47;;;6.03;;
7169;SDS011;3626;42.656;23.312;2023-04-06T00:05:24;10.64;;;6.00;;
7169;SDS011;3626;42.656;23.312;2023-04-06T00:05:30;10.52;;;5.90;;
7169;SDS011;3626;42.656;23.312;2023-04-06T00:05:36;10.93;;;6.07;;
7169;SDS011;3626;42.656;23.312;2023-04-06T00:05:42;11.00;;;6.05;;
7169;SDS011;3626;42.656;23.312;2023-04-06T00:05:48;11.10;;;6.10;;
7169;SDS011;3626;42.656;23.312;2023-04-06T00:05:54;10.80;;;6.20;;
7169;SDS011;3626;42.656;23.312;2023-04-06T00:06:03;10.81;;;6.20;;
7169;SDS011;3626;42.656;23.312;2023-04-06T00:06:09;11.04;;;6.20;;
7169;SDS011;3626;42.656;23.312;2023-04-06T00:06:15;11.10;;;6.20;;
7169;SDS011;3626;42.656;23.312;2023-04-06T00:06:22;11.00;;;6.30;;
7169;SDS011;3626;42.656;23.312;2023-04-06T00:06:28;11.48;;;6.53;;
7169;SDS011;3626;42.656;23.312;2023-04-06T00:06:34;11.73;;;6.50;;
7169;SDS011;3626;42.656;23.312;2023-04-06T00:06:40;12.37;;;6.67;;
7169;SDS011;3626;42.656;23.312;2023-04-06T00:06:46;12.30;;;6.67;;
7169;SDS011;3626;42.656;23.312;2023-04-06T00:06:52;12.40;;;6.68;;
7169;SDS011;3626;42.656;23.312;2023-04-06T00:06:58;12.57;;;6.70;;
7169;SDS011;3626;42.656;23.312;2023-04-06T00:07:04;12.57;;;6.70;;
7169;SDS011;3626;42.656;23.312;2023-04-06T00:07:10;11.83;;;6.57;;
7169;SDS011;3626;42.656;23.312;2023-04-06T00:07:16;11.60;;;6.45;;
7169;SDS011;3626;42.656;23.312;2023-04-06T00:07:22;11.70;;;6.47;;
7169;SDS011;3626;42.656;23.312;2023-04-06T00:07:28;11.02;;;6.30;;
7169;SDS011;3626;42.656;23.312;2023-04-06T00:07:38;10.00;;;6.26;;
7169;SDS011;3626;42.656;23.312;2023-04-06T00:07:44;9.70;;;6.20;;
7169;SDS011;3626;42.656;23.312;2023-04-06T00:07:50;9.63;;;6.20;;
7169;SDS011;3626;42.656;23.312;2023-04-06T00:07:58;9.44;;;6.20;;
7169;SDS011;3626;42.656;23.312;2023-04-06T00:08:04;9.27;;;6.00;;
7169;SDS011;3626;42.656;23.312;2023-04-06T00:08:10;9.70;;;6.07;;
7169;SDS011;3626;42.656;23.312;2023-04-06T00:08:16;10.15;;;6.28;;
7169;SDS011;3626;42.656;23.312;2023-04-06T00:08:22;9.93;;;6.22;;
7169;SDS011;3626;42.656;23.312;2023-04-06T00:08:28;10.42;;;6.40;;
7169;SDS011;3626;42.656;23.312;2023-04-06T00:08:34;11.10;;;6.50;;
7169;SDS011;3626;42.656;23.312;2023-04-06T00:08:40;10.90;;;6.40;;
7169;SDS011;3626;42.656;23.312;2023-04-06T00:08:46;10.93;;;6.47;;
7169;SDS011;3626;42.656;23.312;2023-04-06T00:08:52;10.63;;;6.32;;
7169;SDS011;3626;42.656;23.312;2023-04-06T00:08:59;10.45;;;6.22;;
7169;SDS011;3626;42.656;23.312;2023-04-06T00:09:05;10.20;;;6.30;;
7169;SDS011;3626;42.656;23.312;2023-04-06T00:09:13;10.00;;;6.27;;
7169;SDS011;3626;42.656;23.312;2023-04-06T00:09:22;10.20;;;6.10;;
7169;SDS011;3626;42.656;23.312;2023-04-06T00:09:28;9.98;;;6.03;;
7169;SDS011;3626;42.656;23.312;2023-04-06T00:09:34;9.67;;;6.00;;
7169;SDS011;3626;42.656;23.312;2023-04-06T00:09:40;9.90;;;6.10;;
7169;SDS011;3626;42.656;23.312;2023-04-06T00:09:46;9.85;;;6.03;;
7169;SDS011;3626;42.656;23.312;2023-04-06T00:09:52;9.90;;;6.00;;
7169;SDS011;3626;42.656;23.312;2023-04-06T00:09:58;9.88;;;6.00;;
7169;SDS011;3626;42.656;23.312;2023-04-06T00:10:05;10.90;;;6.10;;
7169;SDS011;3626;42.656;23.312;2023-04-06T00:10:12;10.88;;;6.10;;
7169;SDS011;3626;42.656;23.312;2023-04-06T00:10:18;11.02;;;6.28;;
7169;SDS011;3626;42.656;23.312;2023-04-06T00:10:24;11.10;;;6.43;;
7169;SDS011;3626;42.656;23.312;2023-04-06T00:10:30;11.27;;;6.60;;
7169;SDS011;3626;42.656;23.312;2023-04-06T00:10:39;11.04;;;6.58;;
7169;SDS011;3626;42.656;23.312;2023-04-06T00:10:50;11.04;;;6.59;;
7169;SDS011;3626;42.656;23.312;2023-04-06T00:10:56;11.73;;;6.80;;
7169;SDS011;3626;42.656;23.312;2023-04-06T00:11:03;11.23;;;6.80;;
7169;SDS011;3626;42.656;23.312;2023-04-06T00:11:09;11.27;;;6.95;;
7169;SDS011;3626;42.656;23.312;2023-04-06T00:11:15;11.23;;;6.90;;
7169;SDS011;3626;42.656;23.312;2023-04-06T00:11:21;11.27;;;6.80;;
7169;SDS011;3626;42.656;23.312;2023-04-06T00:11:27;11.17;;;6.70;;
7169;SDS011;3626;42.656;23.312;2023-04-06T00:11:33;11.35;;;6.60;;
7169;SDS011;3626;42.656;23.312;2023-04-06T00:11:39;11.35;;;6.53;;
7169;SDS011;3626;42.656;23.312;2023-04-06T00:11:45;11.95;;;6.72;;
7169;SDS011;3626;42.656;23.312;2023-04-06T00:11:51;11.90;;;6.72;;
7169;SDS011;3626;42.656;23.312;2023-04-06T00:11:57;11.70;;;6.70;;
7169;SDS011;3626;42.656;23.312;2023-04-06T00:12:04;11.87;;;6.60;;
7169;SDS011;3626;42.656;23.312;2023-04-06T00:12:10;11.70;;;6.40;;
7169;SDS011;3626;42.656;23.312;2023-04-06T00:12:16;12.25;;;6.47;;
7169;SDS011;3626;42.656;23.312;2023-04-06T00:12:22;12.30;;;6.57;;
7169;SDS011;3626;42.656;23.312;2023-04-06T00:12:29;12.77;;;6.50;;
7169;SDS011;3626;42.656;23.312;2023-04-06T00:12:35;13.23;;;6.70;;
7169;SDS011;3626;42.656;23.312;2023-04-06T00:12:41;13.20;;;6.68;;
7169;SDS011;3626;42.656;23.312;2023-04-06T00:12:48;12.48;;;6.52;;
7169;SDS011;3626;42.656;23.312;2023-04-06T00:12:54;12.07;;;6.32;;
7169;SDS011;3626;42.656;23.312;2023-04-06T00:13:01;11.93;;;6.50;;
7169;SDS011;3626;42.656;23.312;2023-04-06T00:13:07;11.33;;;6.50;;
7169;SDS011;3626;42.656;23.312;2023-04-06T00:13:14;11.10;;;6.55;;
7169;SDS011;3626;42.656;23.312;2023-04-06T00:13:20;10.60;;;6.23;;
7169;SDS011;3626;42.656;23.312;2023-04-06T00:13:26;10.43;;;6.10;;
7169;SDS011;3626;42.656;23.312;2023-04-06T00:13:33;10.10;;;6.00;;
7169;SDS011;3626;42.656;23.312;2023-04-06T00:13:39;10.30;;;6.10;;
7169;SDS011;3626;42.656;23.312;2023-04-06T00:13:45;10.70;;;6.20;;
7169;SDS011;3626;42.656;23.312;2023-04-06T00:13:51;11.10;;;6.38;;
7169;SDS011;3626;42.656;23.312;2023-04-06T00:13:58;10.95;;;6.13;;
7169;SDS011;3626;42.656;23.312;2023-04-06T00:14:04;11.27;;;6.10;;
7169;SDS011;3626;42.656;23.312;2023-04-06T00:14:10;11.95;;;6.30;;
7169;SDS011;3626;42.656;23.312;2023-04-06T00:14:16;11.88;;;6.45;;
7169;SDS011;3626;42.656;23.312;2023-04-06T00:14:22;11.94;;;6.52;;
7169;SDS011;3626;42.656;23.312;2023-04-06T00:14:28;12.07;;;6.60;;
7169;SDS011;3626;42.656;23.312;2023-04-06T00:14:34;11.35;;;6.60;;
7169;SDS011;3626;42.656;23.312;2023-04-06T00:14:40;12.10;;;6.72;;
7169;SDS011;3626;42.656;23.312;2023-04-06T00:14:46;11.63;;;6.65;;
7169;SDS011;3626;42.656;23.312;2023-04-06T00:14:52;11.38;;;6.50;;
7169;SDS011;3626;42.656;23.312;2023-04-06T00:14:58;11.40;;;6.47;;
7169;SDS011;3626;42.656;23.312;2023-04-06T00:15:06;11.10;;;6.30;;
7169;SDS011;3626;42.656;23.312;2023-04-06T00:15:16;10.67;;;6.07;;
7169;SDS011;3626;42.656;23.312;2023-04-06T00:15:22;10.55;;;6.13;;
7169;SDS011;3626;42.656;23.312;2023-04-06T00:15:28;10.83;;;6.20;;
7169;SDS011;3626;42.656;23.312;2023-04-06T00:15:34;10.98;;;6.10;;
7169;SDS011;3626;42.656;23.312;2023-04-06T00:15:40;9.90;;;5.90;;
7169;SDS011;3626;42.656;23.312;2023-04-06T00:15:46;9.83;;;5.90;;
7169;SDS011;3626;42.656;23.312;2023-04-06T00:15:52;10.00;;;5.83;;
7169;SDS011;3626;42.656;23.312;2023-04-06T00:15:58;10.33;;;5.93;;
7169;SDS011;3626;42.656;23.312;2023-04-06T00:16:04;10.45;;;5.95;;
7169;SDS011;3626;42.656;23.312;2023-04-06T00:16:11;10.27;;;6.00;;
7169;SDS011;3626;42.656;23.312;2023-04-06T00:16:17;10.30;;;5.90;;
7169;SDS011;3626;42.656;23.312;2023-04-06T00:16:23;10.26;;;5.88;;
7169;SDS011;3626;42.656;23.312;2023-04-06T00:16:29;9.87;;;5.73;;
7169;SDS011;3626;42.656;23.312;2023-04-06T00:16:35;9.80;;;5.60;;
7169;SDS011;3626;42.656;23.312;2023-04-06T00:16:41;9.98;;;5.60;;
7169;SDS011;3626;42.656;23.312;2023-04-06T00:16:50;10.13;;;5.73;;
7169;SDS011;3626;42.656;23.312;2023-04-06T00:16:56;9.57;;;5.70;;
7169;SDS011;3626;42.656;23.312;2023-04-06T00:17:02;9.43;;;5.60;;
7169;SDS011;3626;42.656;23.312;2023-04-06T00:17:08;9.75;;;5.60;;
7169;SDS011;3626;42.656;23.312;2023-04-06T00:17:14;9.97;;;5.53;;
7169;SDS011;3626;42.656;23.312;2023-04-06T00:17:20;9.60;;;5.40;;
7169;SDS011;3626;42.656;23.312;2023-04-06T00:17:26;9.73;;;5.40;;
7169;SDS011;3626;42.656;23.312;2023-04-06T00:17:32;10.70;;;5.60;;
7169;SDS011;3626;42.656;23.312;2023-04-06T00:17:38;10.70;;;5.60;;
7169;SDS011;3626;42.656;23.312;2023-04-06T00:17:44;10.43;;;5.57;;
7169;SDS011;3626;42.656;23.312;2023-04-06T00:17:50;10.60;;;5.50;;
7169;SDS011;3626;42.656;23.312;2023-04-06T00:17:56;10.63;;;5.50;;
7169;SDS011;3626;42.656;23.312;2023-04-06T00:18:04;10.97;;;5.63;;
7169;SDS011;3626;42.656;23.312;2023-04-06T00:18:12;10.88;;;5.73;;
7169;SDS011;3626;42.656;23.312;2023-04-06T00:18:22;11.06;;;5.98;;
7169;SDS011;3626;42.656;23.312;2023-04-06T00:18:28;10.46;;;5.92;;
7169;SDS011;3626;42.656;23.312;2023-04-06T00:18:34;9.80;;;5.90;;
7169;SDS011;3626;42.656;23.312;2023-04-06T00:18:40;9.87;;;5.90;;
7169;SDS011;3626;42.656;23.312;2023-04-06T00:18:46;9.83;;;5.80;;
7169;SDS011;3626;42.656;23.312;2023-04-06T00:18:52;9.77;;;5.82;;
7169;SDS011;3626;42.656;23.312;2023-04-06T00:18:58;9.80;;;5.83;;
7169;SDS011;3626;42.656;23.312;2023-04-06T00:19:04;9.57;;;5.85;;
7169;SDS011;3626;42.656;23.312;2023-04-06T00:19:10;10.20;;;5.90;;
7169;SDS011;3626;42.656;23.312;2023-04-06T00:19:16;10.55;;;5.88;;
7169;SDS011;3626;42.656;23.312;2023-04-06T00:19:22;10.33;;;5.80;;
7169;SDS011;3626;42.656;23.312;2023-04-06T00:19:28;10.70;;;6.00;;
7169;SDS011;3626;42.656;23.312;2023-04-06T00:19:34;10.75;;;6.00;;
7169;SDS011;3626;42.656;23.312;2023-04-06T00:19:40;10.77;;;6.07;;
7169;SDS011;3626;42.656;23.312;2023-04-06T00:19:46;11.60;;;6.10;;
7169;SDS011;3626;42.656;23.312;2023-04-06T00:19:52;11.52;;;6.10;;
7169;SDS011;3626;42.656;23.312;2023-04-06T00:19:58;11.20;;;6.00;;
7169;SDS011;3626;42.656;23.312;2023-04-06T00:20:05;11.73;;;5.80;;
7169;SDS011;3626;42.656;23.312;2023-04-06T00:20:15;11.01;;;5.71;;
7169;SDS011;3626;42.656;23.312;2023-04-06T00:20:21;11.12;;;5.70;;
7169;SDS011;3626;42.656;23.312;2023-04-06T00:20:28;10.97;;;5.60;;
7169;SDS011;3626;42.656;23.312;2023-04-06T00:20:34;11.02;;;5.63;;
7169;SDS011;3626;42.656;23.312;2023-04-06T00:20:40;12.13;;;5.95;;
7169;SDS011;3626;42.656;23.312;2023-04-06T00:20:46;11.82;;;6.05;;
7169;SDS011;3626;42.656;23.312;2023-04-06T00:20:52;11.82;;;6.07;;
7169;SDS011;3626;42.656;23.312;2023-04-06T00:20:58;12.20;;;6.15;;
7169;SDS011;3626;42.656;23.312;2023-04-06T00:21:04;11.30;;;6.20;;
7169;SDS011;3626;42.656;23.312;2023-04-06T00:21:11;11.07;;;6.33;;
7169;SDS011;3626;42.656;23.312;2023-04-06T00:21:18;10.93;;;6.33;;
7169;SDS011;3626;42.656;23.312;2023-04-06T00:21:24;11.05;;;6.30;;
7169;SDS011;3626;42.656;23.312;2023-04-06T00:21:30;11.00;;;6.30;;
7169;SDS011;3626;42.656;23.312;2023-04-06T00:21:37;10.83;;;6.17;;
7169;SDS011;3626;42.656;23.312;2023-04-06T00:21:43;9.63;;;5.80;;
7169;SDS011;3626;42.656;23.312;2023-04-06T00:21:49;9.87;;;5.97;;
7169;SDS011;3626;42.656;23.312;2023-04-06T00:21:55;10.27;;;5.90;;
7169;SDS011;3626;42.656;23.312;2023-04-06T00:22:01;10.48;;;5.97;;
7169;SDS011;3626;42.656;23.312;2023-04-06T00:22:07;10.47;;;5.90;;
7169;SDS011;3626;42.656;23.312;2023-04-06T00:22:16;11.50;;;6.07;;
7169;SDS011;3626;42.656;23.312;2023-04-06T00:22:22;11.20;;;6.00;;
7169;SDS011;3626;42.656;23.312;2023-04-06T00:22:28;11.20;;;6.00;;
7169;SDS011;3626;42.656;23.312;2023-04-06T00:22:34;11.15;;;6.00;;
7169;SDS011;3626;42.656;23.312;2023-04-06T00:22:40;11.17;;;6.03;;
7169;SDS011;3626;42.656;23.312;2023-04-06T00:22:46;11.57;;;5.97;;
7169;SDS011;3626;42.656;23.312;2023-04-06T00:22:52;11.65;;;5.97;;
7169;SDS011;3626;42.656;23.312;2023-04-06T00:22:59;11.26;;;6.08;;
7169;SDS011;3626;42.656;23.312;2023-04-06T00:23:05;11.23;;;6.10;;
7169;SDS011;3626;42.656;23.312;2023-04-06T00:23:11;10.93;;;6.03;;
7169;SDS011;3626;42.656;23.312;2023-04-06T00:23:20;10.07;;;5.90;;
7169;SDS011;3626;42.656;23.312;2023-04-06T00:23:26;10.80;;;6.00;;
7169;SDS011;3626;42.656;23.312;2023-04-06T00:23:32;11.03;;;6.03;;
7169;SDS011;3626;42.656;23.312;2023-04-06T00:23:38;10.95;;;6.10;;
7169;SDS011;3626;42.656;23.312;2023-04-06T00:23:44;10.80;;;6.14;;
7169;SDS011;3626;42.656;23.312;2023-04-06T00:23:50;10.87;;;6.30;;
7169;SDS011;3626;42.656;23.312;2023-04-06T00:23:56;10.70;;;6.30;;
7169;SDS011;3626;42.656;23.312;2023-04-06T00:24:02;10.95;;;6.30;;
7169;SDS011;3626;42.656;23.312;2023-04-06T00:24:09;11.40;;;6.40;;
7169;SDS011;3626;42.656;23.312;2023-04-06T00:24:15;11.87;;;6.50;;
7169;SDS011;3626;42.656;23.312;2023-04-06T00:24:21;11.75;;;6.43;;
7169;SDS011;3626;42.656;23.312;2023-04-06T00:24:27;11.03;;;6.30;;
7169;SDS011;3626;42.656;23.312;2023-04-06T00:24:33;10.90;;;6.40;;
7169;SDS011;3626;42.656;23.312;2023-04-06T00:24:39;10.50;;;6.30;;
7169;SDS011;3626;42.656;23.312;2023-04-06T00:24:45;10.50;;;6.40;;
7169;SDS011;3626;42.656;23.312;2023-04-06T00:24:52;10.52;;;6.20;;
7169;SDS011;3626;42.656;23.312;2023-04-06T00:24:58;10.60;;;6.20;;
7169;SDS011;3626;42.656;23.312;2023-04-06T00:25:04;10.90;;;6.28;;
7169;SDS011;3626;42.656;23.312;2023-04-06T00:25:10;10.44;;;6.20;;
7169;SDS011;3626;42.656;23.312;2023-04-06T00:25:17;10.37;;;6.20;;
7169;SDS011;3626;42.656;23.312;2023-04-06T00:25:23;10.53;;;6.30;;
7169;SDS011;3626;42.656;23.312;2023-04-06T00:25:29;10.45;;;6.18;;
7169;SDS011;3626;42.656;23.312;2023-04-06T00:25:35;10.65;;;6.22;;
7169;SDS011;3626;42.656;23.312;2023-04-06T00:25:41;10.57;;;6.13;;
7169;SDS011;3626;42.656;23.312;2023-04-06T00:25:50;10.50;;;6.10;;
7169;SDS011;3626;42.656;23.312;2023-04-06T00:25:56;10.64;;;6.18;;
7169;SDS011;3626;42.656;23.312;2023-04-06T00:26:02;10.23;;;6.05;;
7169;SDS011;3626;42.656;23.312;2023-04-06T00:26:10;9.67;;;5.87;;
7169;SDS011;3626;42.656;23.312;2023-04-06T00:26:19;9.23;;;5.71;;
7169;SDS011;3626;42.656;23.312;2023-04-06T00:26:25;9.05;;;5.70;;
7169;SDS011;3626;42.656;23.312;2023-04-06T00:26:31;9.02;;;5.70;;
7169;SDS011;3626;42.656;23.312;2023-04-06T00:26:37;9.15;;;5.70;;
7169;SDS011;3626;42.656;23.312;2023-04-06T00:26:43;8.93;;;5.70;;
7169;SDS011;3626;42.656;23.312;2023-04-06T00:26:49;8.85;;;5.63;;
7169;SDS011;3626;42.656;23.312;2023-04-06T00:26:55;8.88;;;5.60;;
7169;SDS011;3626;42.656;23.312;2023-04-06T00:27:01;9.10;;;5.55;;
7169;SDS011;3626;42.656;23.312;2023-04-06T00:27:07;9.35;;;5.65;;
7169;SDS011;3626;42.656;23.312;2023-04-06T00:27:13;10.05;;;5.97;;
7169;SDS011;3626;42.656;23.312;2023-04-06T00:27:19;11.10;;;6.17;;
7169;SDS011;3626;42.656;23.312;2023-04-06T00:27:25;11.55;;;6.10;;
7169;SDS011;3626;42.656;23.312;2023-04-06T00:27:34;11.33;;;6.10;;
7169;SDS011;3626;42.656;23.312;2023-04-06T00:27:43;11.86;;;6.10;;
7169;SDS011;3626;42.656;23.312;2023-04-06T00:27:49;11.73;;;6.10;;
7169;SDS011;3626;42.656;23.312;2023-04-06T00:27:55;11.10;;;5.93;;
7169;SDS011;3626;42.656;23.312;2023-04-06T00:28:04;11.37;;;6.10;;
7169;SDS011;3626;42.656;23.312;2023-04-06T00:28:10;11.17;;;5.97;;
7169;SDS011;3626;42.656;23.312;2023-04-06T00:28:16;11.15;;;5.80;;
7169;SDS011;3626;42.656;23.312;2023-04-06T00:28:22;10.35;;;5.72;;
7169;SDS011;3626;42.656;23.312;2023-04-06T00:28:30;10.43;;;5.87;;
7169;SDS011;3626;42.656;23.312;2023-04-06T00:28:36;10.32;;;5.88;;
7169;SDS011;3626;42.656;23.312;2023-04-06T00:28:43;9.50;;;5.70;;
7169;SDS011;3626;42.656;23.312;2023-04-06T00:28:48;9.68;;;5.88;;
7169;SDS011;3626;42.656;23.312;2023-04-06T00:28:55;9.88;;;6.00;;
7169;SDS011;3626;42.656;23.312;2023-04-06T00:29:01;9.45;;;5.88;;
7169;SDS011;3626;42.656;23.312;2023-04-06T00:29:07;9.38;;;5.90;;
7169;SDS011;3626;42.656;23.312;2023-04-06T00:29:13;9.47;;;6.00;;
7169;SDS011;3626;42.656;23.312;2023-04-06T00:29:20;9.30;;;5.90;;
7169;SDS011;3626;42.656;23.312;2023-04-06T00:29:26;9.30;;;5.90;;
7169;SDS011;3626;42.656;23.312;2023-04-06T00:29:32;9.95;;;5.90;;
7169;SDS011;3626;42.656;23.312;2023-04-06T00:29:39;10.65;;;5.90;;
7169;SDS011;3626;42.656;23.312;2023-04-06T00:29:46;11.20;;;6.20;;
7169;SDS011;3626;42.656;23.312;2023-04-06T00:29:52;11.00;;;6.10;;
7169;SDS011;3626;42.656;23.312;2023-04-06T00:29:58;11.07;;;6.13;;
7169;SDS011;3626;42.656;23.312;2023-04-06T00:30:04;11.10;;;6.18;;
7169;SDS011;3626;42.656;23.312;2023-04-06T00:30:11;10.66;;;6.02;;
7169;SDS011;3626;42.656;23.312;2023-04-06T00:30:17;10.60;;;5.92;;
7169;SDS011;3626;42.656;23.312;2023-04-06T00:30:23;10.82;;;6.00;;
7169;SDS011;3626;42.656;23.312;2023-04-06T00:30:29;10.65;;;6.03;;
7169;SDS011;3626;42.656;23.312;2023-04-06T00:30:35;9.77;;;5.97;;
7169;SDS011;3626;42.656;23.312;2023-04-06T00:30:41;10.02;;;5.90;;
7169;SDS011;3626;42.656;23.312;2023-04-06T00:30:47;10.10;;;5.80;;
7169;SDS011;3626;42.656;23.312;2023-04-06T00:30:53;10.05;;;5.72;;
7169;SDS011;3626;42.656;23.312;2023-04-06T00:31:00;10.10;;;5.80;;
7169;SDS011;3626;42.656;23.312;2023-04-06T00:31:09;10.60;;;5.80;;
7169;SDS011;3626;42.656;23.312;2023-04-06T00:31:15;10.80;;;6.07;;
7169;SDS011;3626;42.656;23.312;2023-04-06T00:31:21;10.63;;;6.10;;
7169;SDS011;3626;42.656;23.312;2023-04-06T00:31:27;10.95;;;6.20;;
7169;SDS011;3626;42.656;23.312;2023-04-06T00:31:33;10.82;;;6.20;;
7169;SDS011;3626;42.656;23.312;2023-04-06T00:31:40;10.68;;;6.22;;
7169;SDS011;3626;42.656;23.312;2023-04-06T00:31:46;10.40;;;6.20;;
7169;SDS011;3626;42.656;23.312;2023-04-06T00:31:52;10.50;;;6.10;;
7169;SDS011;3626;42.656;23.312;2023-04-06T00:31:57;10.43;;;6.03;;
7169;SDS011;3626;42.656;23.312;2023-04-06T00:32:03;9.90;;;5.82;;
7169;SDS011;3626;42.656;23.312;2023-04-06T00:32:09;9.90;;;5.97;;
7169;SDS011;3626;42.656;23.312;2023-04-06T00:32:15;9.85;;;5.93;;
7169;SDS011;3626;42.656;23.312;2023-04-06T00:32:21;10.15;;;6.05;;
7169;SDS011;3626;42.656;23.312;2023-04-06T00:32:27;10.10;;;6.00;;
7169;SDS011;3626;42.656;23.312;2023-04-06T00:32:36;9.86;;;6.02;;
7169;SDS011;3626;42.656;23.312;2023-04-06T00:32:42;9.57;;;6.00;;
7169;SDS011;3626;42.656;23.312;2023-04-06T00:32:48;9.75;;;6.15;;
7169;SDS011;3626;42.656;23.312;2023-04-06T00:32:54;10.32;;;6.38;;
7169;SDS011;3626;42.656;23.312;2023-04-06T00:33:00;10.60;;;6.45;;
7169;SDS011;3626;42.656;23.312;2023-04-06T00:33:06;10.63;;;6.50;;
7169;SDS011;3626;42.656;23.312;2023-04-06T00:33:12;10.57;;;6.40;;
7169;SDS011;3626;42.656;23.312;2023-04-06T00:33:18;10.57;;;6.20;;
7169;SDS011;3626;42.656;23.312;2023-04-06T00:33:24;10.67;;;6.07;;
7169;SDS011;3626;42.656;23.312;2023-04-06T00:33:30;10.38;;;6.00;;
7169;SDS011;3626;42.656;23.312;2023-04-06T00:33:37;10.43;;;6.00;;
7169;SDS011;3626;42.656;23.312;2023-04-06T00:33:43;10.65;;;6.03;;
7169;SDS011;3626;42.656;23.312;2023-04-06T00:33:49;10.33;;;5.90;;
7169;SDS011;3626;42.656;23.312;2023-04-06T00:33:55;10.20;;;5.90;;
7169;SDS011;3626;42.656;23.312;2023-04-06T00:34:01;10.52;;;5.90;;
7169;SDS011;3626;42.656;23.312;2023-04-06T00:34:07;10.50;;;6.00;;
7169;SDS011;3626;42.656;23.312;2023-04-06T00:34:13;10.25;;;6.00;;
7169;SDS011;3626;42.656;23.312;2023-04-06T00:34:22;9.68;;;5.97;;
7169;SDS011;3626;42.656;23.312;2023-04-06T00:34:28;9.70;;;6.00;;
7169;SDS011;3626;42.656;23.312;2023-04-06T00:34:34;9.97;;;6.20;;
7169;SDS011;3626;42.656;23.312;2023-04-06T00:34:40;9.87;;;6.23;;
7169;SDS011;3626;42.656;23.312;2023-04-06T00:34:46;9.98;;;6.32;;
7169;SDS011;3626;42.656;23.312;2023-04-06T00:34:52;9.82;;;6.20;;
7169;SDS011;3626;42.656;23.312;2023-04-06T00:34:58;10.15;;;6.30;;
7169;SDS011;3626;42.656;23.312;2023-04-06T00:35:05;10.00;;;6.17;;
7169;SDS011;3626;42.656;23.312;2023-04-06T00:35:11;10.03;;;6.00;;
7169;SDS011;3626;42.656;23.312;2023-04-06T00:35:17;10.15;;;6.07;;
7169;SDS011;3626;42.656;23.312;2023-04-06T00:35:24;10.15;;;6.00;;
7169;SDS011;3626;42.656;23.312;2023-04-06T00:35:30;10.43;;;5.90;;
7169;SDS011;3626;42.656;23.312;2023-04-06T00:35:39;10.23;;;5.80;;
7169;SDS011;3626;42.656;23.312;2023-04-06T00:35:45;10.07;;;5.73;;
7169;SDS011;3626;42.656;23.312;2023-04-06T00:35:51;10.07;;;5.93;;
7169;SDS011;3626;42.656;23.312;2023-04-06T00:35:57;10.13;;;6.00;;
7169;SDS011;3626;42.656;23.312;2023-04-06T00:36:03;9.68;;;5.90;;
7169;SDS011;3626;42.656;23.312;2023-04-06T00:36:10;9.52;;;5.90;;
7169;SDS011;3626;42.656;23.312;2023-04-06T00:36:16;9.25;;;5.90;;
7169;SDS011;3626;42.656;23.312;2023-04-06T00:36:22;8.98;;;5.80;;
7169;SDS011;3626;42.656;23.312;2023-04-06T00:36:28;9.45;;;5.90;;
7169;SDS011;3626;42.656;23.312;2023-04-06T00:36:35;9.53;;;5.80;;
7169;SDS011;3626;42.656;23.312;2023-04-06T00:36:41;10.13;;;5.95;;
7169;SDS011;3626;42.656;23.312;2023-04-06T00:36:47;9.85;;;5.78;;
7169;SDS011;3626;42.656;23.312;2023-04-06T00:36:53;9.54;;;5.60;;
7169;SDS011;3626;42.656;23.312;2023-04-06T00:36:59;9.53;;;5.50;;
7169;SDS011;3626;42.656;23.312;2023-04-06T00:37:05;10.05;;;5.60;;
7169;SDS011;3626;42.656;23.312;2023-04-06T00:37:11;10.48;;;5.85;;
7169;SDS011;3626;42.656;23.312;2023-04-06T00:37:17;10.73;;;5.93;;
7169;SDS011;3626;42.656;23.312;2023-04-06T00:37:24;10.62;;;5.96;;
7169;SDS011;3626;42.656;23.312;2023-04-06T00:37:30;10.10;;;5.97;;
7169;SDS011;3626;42.656;23.312;2023-04-06T00:37:37;9.72;;;5.84;;
7169;SDS011;3626;42.656;23.312;2023-04-06T00:37:43;9.23;;;5.70;;
7169;SDS011;3626;42.656;23.312;2023-04-06T00:37:51;9.58;;;5.80;;
7169;SDS011;3626;42.656;23.312;2023-04-06T00:37:57;9.10;;;5.60;;
7169;SDS011;3626;42.656;23.312;2023-04-06T00:38:03;8.95;;;5.60;;
7169;SDS011;3626;42.656;23.312;2023-04-06T00:38:09;8.60;;;5.40;;
7169;SDS011;3626;42.656;23.312;2023-04-06T00:38:16;8.90;;;5.40;;
7169;SDS011;3626;42.656;23.312;2023-04-06T00:38:22;9.17;;;5.47;;
7169;SDS011;3626;42.656;23.312;2023-04-06T00:38:28;8.93;;;5.30;;
7169;SDS011;3626;42.656;23.312;2023-04-06T00:38:34;9.25;;;5.50;;
7169;SDS011;3626;42.656;23.312;2023-04-06T00:38:40;10.15;;;5.55;;